Time;durP1;ratioP1;P1;durP2;ratioP2;P2;SDS_P1;SDS_P2;PMS_P1;PMS_P2;Temp;Humidity;BMP_temperature;BMP_pressure;BME280_temperature;BME280_humidity;BME280_pressure;Samples;Min_cycle;Max_cycle;Signal;HPM_P1;HPM_P2
2022/10/10 00:00:29;;;;;;;3.63;1.40;;;21.10;42.20;;;;;;5051090;28;20447;-52
2022/10/10 00:03:06;;;;;;;2.53;1.52;;;21.10;42.20;;;;;;5047879;28;20025;-51
2022/10/10 00:05:32;;;;;;;2.05;1.40;;;21.10;42.20;;;;;;5042286;28;20025;-50
2022/10/10 00:07:58;;;;;;;2.90;1.83;;;21.20;42.20;;;;;;5052976;28;20057;-53
2022/10/10 00:10:24;;;;;;;2.42;1.25;;;21.10;42.10;;;;;;5054070;28;20072;-51
2022/10/10 00:12:50;;;;;;;2.03;1.35;;;21.20;42.10;;;;;;5052116;28;20033;-48
2022/10/10 00:15:16;;;;;;;2.20;1.20;;;21.10;42.00;;;;;;5054153;28;20033;-51
2022/10/10 00:17:42;;;;;;;2.55;1.40;;;21.20;42.00;;;;;;5045417;28;20033;-49
2022/10/10 00:20:14;;;;;;;2.05;1.33;;;21.20;42.00;;;;;;5049066;28;20045;-49
2022/10/10 00:22:40;;;;;;;2.28;1.50;;;21.10;41.90;;;;;;5049776;28;20024;-52
2022/10/10 00:25:08;;;;;;;2.05;1.58;;;21.20;41.90;;;;;;5053374;28;20024;-48
2022/10/10 00:27:34;;;;;;;2.53;1.30;;;21.20;41.90;;;;;;5053873;28;20055;-50
2022/10/10 00:30:00;;;;;;;2.67;1.50;;;21.20;41.80;;;;;;5053947;28;20124;-55
2022/10/10 00:32:26;;;;;;;2.13;1.60;;;21.20;41.90;;;;;;5038362;28;20041;-53
2022/10/10 00:34:52;;;;;;;3.40;1.38;;;21.20;41.90;;;;;;5034103;28;20383;-55
2022/10/10 00:37:18;;;;;;;2.15;1.30;;;21.20;41.90;;;;;;5053323;28;20128;-53
2022/10/10 00:39:44;;;;;;;3.10;1.50;;;21.20;41.90;;;;;;5054445;28;20409;-52
2022/10/10 00:42:12;;;;;;;2.55;1.50;;;21.20;41.80;;;;;;5052451;28;20463;-53
2022/10/10 00:44:40;;;;;;;3.65;1.40;;;21.20;41.80;;;;;;5042157;28;20041;-54
2022/10/10 00:47:06;;;;;;;1.77;1.30;;;21.20;41.80;;;;;;5037325;28;20041;-54
2022/10/10 00:49:36;;;;;;;2.13;1.20;;;21.20;41.80;;;;;;5056669;28;20458;-54
2022/10/10 00:52:03;;;;;;;2.05;1.20;;;21.20;41.70;;;;;;5057022;28;20037;-53
2022/10/10 00:54:31;;;;;;;2.75;1.45;;;21.20;41.70;;;;;;5043058;28;20030;-52
2022/10/10 00:57:13;;;;;;;4.78;1.50;;;21.20;41.70;;;;;;5052020;28;20370;-51
2022/10/10 00:59:41;;;;;;;2.25;1.30;;;21.20;41.70;;;;;;5053845;28;20112;-49
2022/10/10 01:02:07;;;;;;;1.88;1.20;;;21.20;41.70;;;;;;5046331;28;20060;-54
2022/10/10 01:04:43;;;;;;;2.08;1.20;;;21.30;41.70;;;;;;5037418;28;20021;-51
2022/10/10 01:07:17;;;;;;;2.15;1.20;;;21.20;41.60;;;;;;5046819;28;20039;-51
2022/10/10 01:09:46;;;;;;;1.77;1.30;;;21.20;41.60;;;;;;5055110;28;20083;-49
2022/10/10 01:12:27;;;;;;;2.20;1.27;;;21.20;41.60;;;;;;5043773;28;20025;-50
2022/10/10 01:15:04;;;;;;;1.50;1.17;;;21.20;41.50;;;;;;5037553;28;20088;-51
2022/10/10 01:17:51;;;;;;;2.78;1.30;;;21.20;41.50;;;;;;5036996;28;20104;-51
2022/10/10 01:20:26;;;;;;;2.13;1.20;;;21.20;41.50;;;;;;5055210;28;20029;-54
2022/10/10 01:23:29;;;;;;;2.47;1.40;;;21.20;41.50;;;;;;5056064;28;20033;-52
2022/10/10 01:26:25;;;;;;;2.20;1.30;;;21.20;41.50;;;;;;5050064;28;20096;-52
2022/10/10 01:28:51;;;;;;;2.30;1.30;;;21.20;41.50;;;;;;5047422;28;20033;-54
2022/10/10 01:31:21;;;;;;;2.20;1.40;;;21.20;41.50;;;;;;5036964;28;20041;-53
2022/10/10 01:34:03;;;;;;;1.35;1.13;;;21.20;41.50;;;;;;5044605;28;20029;-51
2022/10/10 01:36:47;;;;;;;1.58;1.08;;;21.20;41.50;;;;;;5055697;28;20039;-53
2022/10/10 01:39:50;;;;;;;2.28;1.20;;;21.20;41.40;;;;;;5053493;28;20029;-48
2022/10/10 01:42:21;;;;;;;1.60;1.10;;;21.20;41.40;;;;;;5055044;28;20049;-49
2022/10/10 01:44:47;;;;;;;1.50;1.00;;;21.20;41.40;;;;;;5040064;28;20025;-54
2022/10/10 01:47:13;;;;;;;1.95;1.13;;;21.20;41.40;;;;;;5047969;28;20029;-53
2022/10/10 01:49:43;;;;;;;2.55;1.30;;;21.20;41.40;;;;;;5056551;28;20048;-49
2022/10/10 01:52:30;;;;;;;1.23;0.98;;;21.20;41.40;;;;;;5054567;28;20057;-51
2022/10/10 01:55:08;;;;;;;1.52;0.95;;;21.20;41.40;;;;;;5054813;28;20031;-53
2022/10/10 01:57:40;;;;;;;1.83;1.10;;;21.20;41.40;;;;;;5036405;28;20092;-47
2022/10/10 02:00:11;;;;;;;2.25;1.20;;;21.20;41.40;;;;;;5047685;28;20039;-55
2022/10/10 02:03:09;;;;;;;3.92;1.17;;;21.20;41.40;;;;;;5056486;28;20032;-50
2022/10/10 02:05:48;;;;;;;3.47;1.23;;;21.20;41.40;;;;;;5045656;28;20041;-47
2022/10/10 02:08:34;;;;;;;2.28;1.40;;;21.20;41.40;;;;;;5055113;28;20051;-50
2022/10/10 02:11:04;;;;;;;1.92;1.00;;;21.20;41.40;;;;;;5039347;28;20032;-49
2022/10/10 02:13:41;;;;;;;1.67;1.15;;;21.20;41.40;;;;;;5054938;28;20112;-49
2022/10/10 02:16:17;;;;;;;3.50;1.45;;;21.20;41.40;;;;;;5055001;28;20029;-47
2022/10/10 02:18:44;;;;;;;1.92;1.23;;;21.20;41.40;;;;;;5052396;28;20491;-49
2022/10/10 02:21:12;;;;;;;1.75;1.13;;;21.20;41.30;;;;;;5056689;28;20063;-49
2022/10/10 02:23:41;;;;;;;1.77;1.00;;;21.20;41.30;;;;;;5054903;28;20049;-49
2022/10/10 02:26:11;;;;;;;2.85;1.23;;;21.20;41.30;;;;;;5055792;28;20021;-46
2022/10/10 02:28:36;;;;;;;2.70;1.33;;;21.20;41.30;;;;;;5055625;28;20029;-48
2022/10/10 02:31:09;;;;;;;1.73;1.10;;;21.20;41.30;;;;;;5054552;28;20032;-47
2022/10/10 02:33:49;;;;;;;1.60;1.00;;;21.20;41.30;;;;;;5052495;28;20108;-54
2022/10/10 02:36:16;;;;;;;2.28;1.13;;;21.20;41.30;;;;;;5050044;28;20028;-53
2022/10/10 02:38:44;;;;;;;2.15;1.02;;;21.20;41.30;;;;;;5055559;28;20040;-55
2022/10/10 02:41:13;;;;;;;1.77;1.23;;;21.20;41.30;;;;;;5051171;28;20018;-54
2022/10/10 02:43:39;;;;;;;2.45;1.20;;;21.20;41.20;;;;;;5054601;28;20052;-50
2022/10/10 02:46:09;;;;;;;2.72;1.30;;;21.20;41.20;;;;;;5055307;28;20089;-48
2022/10/10 02:48:35;;;;;;;1.77;1.00;;;21.20;41.20;;;;;;5048350;28;20025;-47
2022/10/10 02:51:01;;;;;;;1.92;1.40;;;21.20;41.20;;;;;;5035640;28;20029;-50
2022/10/10 02:53:27;;;;;;;2.50;1.20;;;21.20;41.20;;;;;;5035534;28;20029;-47
2022/10/10 02:55:53;;;;;;;4.45;1.00;;;21.20;41.20;;;;;;5050130;28;20355;-47
2022/10/10 02:58:18;;;;;;;1.98;1.15;;;21.20;41.20;;;;;;5054073;28;20036;-51
2022/10/10 03:00:44;;;;;;;2.05;0.98;;;21.20;41.20;;;;;;5054643;28;20056;-48
2022/10/10 03:03:10;;;;;;;2.45;1.20;;;21.20;41.30;;;;;;5055466;28;20033;-50
2022/10/10 03:05:36;;;;;;;1.45;1.00;;;21.20;41.30;;;;;;5055195;28;20032;-49
2022/10/10 03:08:02;;;;;;;1.80;1.05;;;21.20;41.20;;;;;;5052101;28;20060;-48
2022/10/10 03:10:27;;;;;;;2.38;1.40;;;21.20;41.20;;;;;;5051565;28;20045;-53
2022/10/10 03:12:53;;;;;;;2.38;1.00;;;21.20;41.20;;;;;;5055183;28;20024;-49
2022/10/10 03:15:19;;;;;;;2.85;1.27;;;21.20;41.20;;;;;;5055291;28;20413;-47
2022/10/10 03:17:45;;;;;;;2.38;1.20;;;21.20;41.20;;;;;;5055064;28;20025;-49
2022/10/10 03:20:11;;;;;;;2.53;1.27;;;21.20;41.20;;;;;;5051417;28;20029;-48
2022/10/10 03:22:37;;;;;;;1.83;1.02;;;21.20;41.20;;;;;;5052697;28;20021;-50
2022/10/10 03:25:03;;;;;;;1.63;1.02;;;21.20;41.20;;;;;;5041310;28;20025;-49
2022/10/10 03:27:29;;;;;;;2.05;1.20;;;21.20;41.20;;;;;;5053899;28;20037;-49
2022/10/10 03:29:55;;;;;;;1.73;0.90;;;21.20;41.20;;;;;;5054835;28;20052;-48
2022/10/10 03:32:20;;;;;;;1.85;1.05;;;21.20;41.20;;;;;;5052226;28;20091;-51
2022/10/10 03:34:46;;;;;;;1.77;1.02;;;21.20;41.20;;;;;;5052451;28;20037;-53
2022/10/10 03:37:12;;;;;;;2.30;1.05;;;21.20;41.20;;;;;;5054949;28;20029;-49
2022/10/10 03:39:38;;;;;;;1.95;1.13;;;21.20;41.20;;;;;;5054146;28;20029;-51
2022/10/10 03:42:04;;;;;;;1.88;1.00;;;21.20;41.10;;;;;;5052267;28;20029;-49
2022/10/10 03:44:29;;;;;;;2.80;1.10;;;21.20;41.20;;;;;;5042164;28;20114;-52
2022/10/10 03:46:55;;;;;;;1.13;0.98;;;21.20;41.80;;;;;;5035147;28;20108;-53
2022/10/10 03:49:21;;;;;;;1.52;0.93;;;21.20;41.20;;;;;;5034650;28;20044;-52
2022/10/10 03:51:47;;;;;;;1.60;1.02;;;21.20;41.20;;;;;;5035016;28;20037;-50
2022/10/10 03:54:13;;;;;;;2.13;1.05;;;21.10;41.10;;;;;;5016732;28;20084;-51
2022/10/10 03:56:38;;;;;;;3.25;1.30;;;21.20;41.20;;;;;;5052907;28;20123;-53
2022/10/10 03:59:05;;;;;;;1.88;1.20;;;21.20;41.20;;;;;;5042598;28;20108;-53
2022/10/10 04:01:32;;;;;;;2.28;1.23;;;21.20;41.20;;;;;;5044590;28;20087;-50
2022/10/10 04:03:58;;;;;;;1.20;0.90;;;21.20;41.20;;;;;;5054672;28;20421;-52
2022/10/10 04:06:24;;;;;;;2.40;1.10;;;21.20;41.20;;;;;;5053366;28;20352;-48
2022/10/10 04:08:50;;;;;;;1.73;1.05;;;21.20;41.20;;;;;;5053168;28;20372;-52
2022/10/10 04:11:16;;;;;;;2.70;1.20;;;21.20;41.20;;;;;;5051589;28;20025;-51
2022/10/10 04:13:42;;;;;;;1.58;1.20;;;21.20;41.20;;;;;;5053942;28;20400;-47
2022/10/10 04:16:07;;;;;;;2.15;0.93;;;21.10;41.10;;;;;;5054147;28;20037;-48
2022/10/10 04:18:33;;;;;;;1.40;1.00;;;21.10;41.10;;;;;;5054046;28;20519;-52
2022/10/10 04:21:04;;;;;;;1.90;1.02;;;21.20;41.20;;;;;;5057088;28;20048;-52
2022/10/10 04:23:30;;;;;;;1.83;1.20;;;21.10;41.10;;;;;;5058140;28;20033;-48
2022/10/10 04:25:55;;;;;;;1.20;0.90;;;21.10;41.10;;;;;;5058262;28;20040;-52
2022/10/10 04:28:21;;;;;;;2.05;0.80;;;21.10;41.20;;;;;;5055517;28;20033;-51
2022/10/10 04:30:47;;;;;;;1.40;0.73;;;21.10;41.20;;;;;;5053997;28;20048;-49
2022/10/10 04:33:13;;;;;;;1.90;1.30;;;21.10;41.20;;;;;;5054075;28;20367;-49
2022/10/10 04:35:39;;;;;;;1.42;0.93;;;21.10;41.20;;;;;;5038276;28;20044;-51
2022/10/10 04:38:06;;;;;;;2.28;1.13;;;21.10;41.20;;;;;;5038330;28;20096;-52
2022/10/10 04:40:32;;;;;;;2.08;1.15;;;21.10;41.20;;;;;;5037498;28;20457;-54
2022/10/10 04:42:58;;;;;;;1.38;1.00;;;21.10;41.20;;;;;;5052589;28;20033;-55
2022/10/10 04:45:25;;;;;;;1.67;1.02;;;21.10;41.20;;;;;;5052763;28;20029;-53
2022/10/10 04:47:54;;;;;;;1.67;1.05;;;21.10;41.30;;;;;;5057923;28;20025;-55
2022/10/10 04:50:20;;;;;;;3.42;1.20;;;21.10;41.30;;;;;;5057318;28;20083;-54
2022/10/10 04:52:46;;;;;;;2.78;1.48;;;21.10;41.30;;;;;;5040955;28;20025;-49
2022/10/10 04:55:12;;;;;;;3.15;1.38;;;21.10;41.30;;;;;;5054100;28;20514;-51
2022/10/10 04:57:37;;;;;;;1.70;1.10;;;21.10;41.30;;;;;;5057186;28;20044;-49
2022/10/10 05:00:05;;;;;;;1.42;1.10;;;21.10;41.30;;;;;;5056658;28;20111;-48
2022/10/10 05:02:31;;;;;;;1.55;0.90;;;21.10;41.30;;;;;;5057719;28;20029;-49
2022/10/10 05:04:57;;;;;;;1.75;1.17;;;21.10;41.30;;;;;;5055673;28;20088;-48
2022/10/10 05:07:23;;;;;;;2.10;1.00;;;21.10;41.30;;;;;;5054476;28;20021;-50
2022/10/10 05:09:49;;;;;;;2.25;1.23;;;21.10;41.40;;;;;;5055435;28;20041;-50
2022/10/10 05:12:15;;;;;;;2.03;1.10;;;21.10;41.30;;;;;;5057736;28;20025;-48
2022/10/10 05:14:41;;;;;;;1.25;0.93;;;21.10;41.40;;;;;;5057280;28;20029;-50
2022/10/10 05:17:07;;;;;;;1.52;1.10;;;21.10;41.40;;;;;;5057390;28;20025;-46
2022/10/10 05:19:33;;;;;;;2.20;1.20;;;21.10;41.40;;;;;;5054638;28;20471;-52
2022/10/10 05:21:59;;;;;;;2.80;1.17;;;21.10;41.40;;;;;;5056760;28;20116;-53
2022/10/10 05:24:25;;;;;;;1.25;0.90;;;21.10;41.40;;;;;;5056259;28;20100;-51
2022/10/10 05:26:50;;;;;;;1.50;0.88;;;21.10;41.40;;;;;;5055380;28;20076;-49
2022/10/10 05:29:16;;;;;;;1.65;0.85;;;21.10;41.40;;;;;;5054386;28;20068;-51
2022/10/10 05:31:42;;;;;;;1.55;0.95;;;21.10;41.50;;;;;;5055872;28;20119;-48
2022/10/10 05:34:12;;;;;;;2.10;1.13;;;21.10;41.40;;;;;;5056333;28;20106;-49
2022/10/10 05:36:39;;;;;;;1.25;0.80;;;21.10;41.40;;;;;;5056216;28;20060;-48
2022/10/10 05:39:05;;;;;;;1.92;1.10;;;21.10;41.50;;;;;;5056799;28;20029;-50
2022/10/10 05:41:31;;;;;;;1.95;1.00;;;21.10;41.50;;;;;;5053217;28;20415;-50
2022/10/10 05:43:56;;;;;;;1.90;1.00;;;21.10;41.50;;;;;;5053590;28;20112;-49
2022/10/10 05:46:23;;;;;;;1.40;1.00;;;21.10;41.50;;;;;;5040985;28;20036;-49
2022/10/10 05:48:50;;;;;;;2.42;1.50;;;21.10;41.50;;;;;;5036540;28;20121;-52
2022/10/10 05:51:15;;;;;;;1.80;0.95;;;21.10;41.50;;;;;;5048204;28;20039;-52
2022/10/10 05:53:41;;;;;;;1.40;0.93;;;21.10;41.50;;;;;;5055134;28;20512;-53
2022/10/10 05:56:08;;;;;;;1.55;1.10;;;21.10;41.50;;;;;;5056677;28;20087;-52
2022/10/10 05:58:34;;;;;;;2.40;1.15;;;21.10;41.50;;;;;;5053351;28;20340;-49
2022/10/10 06:01:05;;;;;;;1.33;1.02;;;21.10;41.50;;;;;;5055821;28;20032;-51
2022/10/10 06:03:32;;;;;;;1.75;1.20;;;21.10;41.50;;;;;;5054713;28;20342;-54
2022/10/10 06:05:58;;;;;;;1.38;0.98;;;21.00;41.50;;;;;;5056168;28;20090;-53
2022/10/10 06:08:24;;;;;;;1.60;0.82;;;21.00;41.50;;;;;;5048672;28;20049;-52
2022/10/10 06:10:50;;;;;;;1.40;1.02;;;21.00;41.50;;;;;;5050129;28;20094;-51
2022/10/10 06:13:17;;;;;;;2.15;1.10;;;21.00;41.50;;;;;;5055694;28;20454;-53
2022/10/10 06:15:43;;;;;;;1.83;1.05;;;21.00;41.50;;;;;;5052049;28;20021;-53
2022/10/10 06:18:10;;;;;;;1.80;1.08;;;21.00;41.40;;;;;;5055930;28;20036;-50
2022/10/10 06:20:37;;;;;;;2.42;1.27;;;21.10;41.50;;;;;;5054169;28;20039;-51
2022/10/10 06:23:04;;;;;;;3.30;1.13;;;21.10;41.60;;;;;;5055746;28;20029;-49
2022/10/10 06:25:32;;;;;;;1.20;0.80;;;21.10;41.60;;;;;;5049194;28;20112;-48
2022/10/10 06:27:58;;;;;;;2.63;1.00;;;21.00;41.60;;;;;;5047210;28;20028;-51
2022/10/10 06:30:23;;;;;;;1.85;0.98;;;21.00;41.60;;;;;;5053315;28;20041;-51
2022/10/10 06:32:49;;;;;;;1.60;1.00;;;21.10;41.60;;;;;;5054555;28;20059;-51
2022/10/10 06:35:15;;;;;;;1.50;0.90;;;21.10;41.60;;;;;;5034380;28;20420;-49
2022/10/10 06:37:41;;;;;;;1.58;1.10;;;21.10;41.60;;;;;;5051649;28;20112;-58
2022/10/10 06:40:07;;;;;;;1.80;1.20;;;21.10;41.60;;;;;;5052367;28;20040;-49
2022/10/10 06:42:33;;;;;;;4.03;1.30;;;21.00;41.50;;;;;;5053778;28;20116;-55
2022/10/10 06:44:59;;;;;;;3.03;1.38;;;21.10;41.60;;;;;;5051074;28;20557;-54
2022/10/10 06:47:25;;;;;;;4.78;1.30;;;21.00;41.60;;;;;;5043437;28;20095;-55
2022/10/10 06:49:50;;;;;;;2.55;1.25;;;21.10;41.70;;;;;;5054736;28;20040;-55
2022/10/10 06:52:16;;;;;;;2.40;1.10;;;21.10;41.70;;;;;;5049648;28;20437;-52
2022/10/10 06:54:42;;;;;;;2.10;1.20;;;21.10;41.80;;;;;;5055237;28;20025;-51
2022/10/10 06:57:08;;;;;;;6.13;1.40;;;21.10;41.80;;;;;;5052907;28;20120;-52
2022/10/10 06:59:34;;;;;;;2.53;1.08;;;21.10;41.90;;;;;;5053705;28;20067;-50
2022/10/10 07:02:03;;;;;;;1.70;1.23;;;21.10;41.90;;;;;;5042664;28;20021;-50
2022/10/10 07:04:28;;;;;;;3.35;1.15;;;21.10;42.00;;;;;;5035552;28;20326;-54
2022/10/10 07:06:54;;;;;;;2.40;1.30;;;21.10;42.00;;;;;;5035160;28;20039;-51
2022/10/10 07:09:20;;;;;;;3.35;1.40;;;21.10;42.00;;;;;;5042511;28;20049;-51
2022/10/10 07:11:46;;;;;;;1.92;1.30;;;21.10;42.10;;;;;;5053532;28;20470;-53
2022/10/10 07:14:13;;;;;;;2.40;1.20;;;21.10;42.20;;;;;;5053984;28;20045;-50
2022/10/10 07:16:39;;;;;;;2.65;1.20;;;21.10;42.20;;;;;;5050480;28;20032;-52
2022/10/10 07:19:05;;;;;;;2.67;1.23;;;21.10;42.20;;;;;;5052394;28;20029;-52
2022/10/10 07:21:31;;;;;;;2.63;1.40;;;21.10;42.30;;;;;;5053302;28;20032;-49
2022/10/10 07:23:57;;;;;;;3.05;1.40;;;21.10;42.30;;;;;;5051240;28;20033;-50
2022/10/10 07:26:26;;;;;;;2.58;1.25;;;21.10;42.40;;;;;;5046908;28;20082;-48
2022/10/10 07:28:52;;;;;;;3.63;1.20;;;21.10;42.40;;;;;;5047133;28;20048;-51
2022/10/10 07:31:18;;;;;;;2.70;1.40;;;21.10;42.40;;;;;;5049937;28;20113;-50
2022/10/10 07:33:46;;;;;;;2.63;1.38;;;21.10;42.50;;;;;;5047666;28;20032;-49
2022/10/10 07:36:13;;;;;;;3.83;1.50;;;21.10;42.50;;;;;;5054132;28;20574;-48
2022/10/10 07:38:39;;;;;;;2.47;1.55;;;21.10;42.60;;;;;;5045102;28;20029;-48
2022/10/10 07:41:07;;;;;;;4.05;1.60;;;21.10;42.70;;;;;;5048963;28;20036;-46
2022/10/10 07:43:33;;;;;;;2.88;1.40;;;21.10;42.70;;;;;;5046220;28;20047;-48
2022/10/10 07:45:58;;;;;;;2.03;1.30;;;21.10;42.70;;;;;;5048761;28;20112;-47
2022/10/10 07:48:24;;;;;;;2.97;1.63;;;21.10;42.70;;;;;;5047988;28;20120;-51
2022/10/10 07:50:51;;;;;;;5.03;1.55;;;21.10;42.80;;;;;;5047765;28;20078;-48
2022/10/10 07:53:17;;;;;;;3.20;1.58;;;21.10;42.80;;;;;;5046469;28;20086;-52
2022/10/10 07:55:43;;;;;;;3.00;1.33;;;21.10;42.80;;;;;;5049159;28;21692;-53
2022/10/10 07:58:10;;;;;;;2.22;1.50;;;21.10;42.90;;;;;;5054295;28;20028;-47
2022/10/10 08:00:39;;;;;;;2.53;1.40;;;21.10;42.90;;;;;;5056038;28;20084;-49
2022/10/10 08:03:09;;;;;;;2.55;1.40;;;21.10;43.00;;;;;;5046891;28;20025;-53
2022/10/10 08:05:43;;;;;;;1.85;1.40;;;21.10;43.00;;;;;;5047878;28;20064;-52
2022/10/10 08:08:10;;;;;;;3.17;1.35;;;21.10;43.10;;;;;;5048111;28;20049;-49
2022/10/10 08:10:36;;;;;;;3.40;1.60;;;21.20;43.20;;;;;;5051944;28;20036;-50
2022/10/10 08:13:02;;;;;;;2.28;1.30;;;21.20;43.20;;;;;;5049981;28;20021;-53
2022/10/10 08:15:29;;;;;;;2.97;1.40;;;21.20;43.30;;;;;;5052032;28;20376;-47
2022/10/10 08:17:54;;;;;;;2.25;1.20;;;21.20;43.40;;;;;;5049607;28;20043;-47
2022/10/10 08:20:20;;;;;;;2.40;1.23;;;21.20;43.40;;;;;;5050207;28;20025;-48
2022/10/10 08:22:46;;;;;;;6.40;2.70;;;21.20;43.50;;;;;;5048766;28;20112;-52
2022/10/10 08:25:12;;;;;;;8.27;3.33;;;21.20;43.50;;;;;;5038858;28;20140;-49
2022/10/10 08:27:37;;;;;;;7.55;3.03;;;21.20;43.50;;;;;;5038573;28;20472;-48
2022/10/10 08:30:04;;;;;;;7.68;2.67;;;21.20;43.50;;;;;;5053485;28;20029;-52
2022/10/10 08:32:29;;;;;;;7.13;2.97;;;21.20;43.50;;;;;;5043662;28;20109;-52
2022/10/10 08:34:55;;;;;;;7.07;3.53;;;21.10;43.40;;;;;;5038013;28;20176;-54
2022/10/10 08:37:21;;;;;;;6.72;2.50;;;21.20;43.50;;;;;;5037907;28;20042;-51
2022/10/10 08:39:47;;;;;;;4.55;2.30;;;21.20;44.10;;;;;;5038006;28;20045;-51
2022/10/10 08:42:20;;;;;;;4.88;2.60;;;21.20;43.50;;;;;;5038172;28;20030;-51
2022/10/10 08:44:53;;;;;;;4.72;2.30;;;21.20;43.50;;;;;;5039728;28;20029;-54
2022/10/10 08:47:25;;;;;;;5.53;2.60;;;21.10;43.50;;;;;;5048965;28;20040;-53
2022/10/10 08:49:58;;;;;;;6.65;2.38;;;21.10;43.50;;;;;;5057663;28;20112;-55
2022/10/10 08:52:31;;;;;;;7.28;2.50;;;21.10;43.50;;;;;;5057395;28;20083;-54
2022/10/10 08:55:00;;;;;;;4.35;2.25;;;21.10;43.60;;;;;;5052567;28;20036;-54
2022/10/10 08:57:42;;;;;;;5.15;2.30;;;21.10;43.60;;;;;;5058084;28;20060;-54
2022/10/10 09:00:20;;;;;;;5.13;2.15;;;21.10;43.60;;;;;;5056086;28;20106;-49
2022/10/10 09:02:57;;;;;;;3.13;1.80;;;21.10;43.70;;;;;;5046322;28;20029;-49
2022/10/10 09:05:35;;;;;;;7.28;2.38;;;21.10;44.40;;;;;;5055184;28;20036;-51
2022/10/10 09:08:03;;;;;;;3.95;1.77;;;21.10;43.80;;;;;;5056237;28;20131;-48
2022/10/10 09:10:53;;;;;;;3.00;1.52;;;21.10;43.80;;;;;;5057276;28;20041;-49
2022/10/10 09:14:00;;;;;;;3.90;1.88;;;21.10;43.90;;;;;;5056099;28;20040;-53
2022/10/10 09:16:57;;;;;;;2.55;1.70;;;21.10;43.90;;;;;;5024085;28;20369;-49
2022/10/10 09:19:46;;;;;;;4.10;2.10;;;21.10;43.90;;;;;;5049605;28;20134;-48
2022/10/10 09:22:18;;;;;;;3.20;1.45;;;21.10;43.90;;;;;;5056857;28;20078;-53
2022/10/10 09:24:47;;;;;;;4.43;1.83;;;21.10;44.00;;;;;;5057117;28;20048;-48
2022/10/10 09:27:20;;;;;;;4.15;1.55;;;21.10;44.00;;;;;;5057226;28;20144;-46
2022/10/10 09:29:48;;;;;;;2.78;1.50;;;21.10;44.10;;;;;;5053575;28;20055;-49
2022/10/10 09:32:21;;;;;;;4.72;1.75;;;21.10;44.10;;;;;;5055858;28;20033;-47
2022/10/10 09:34:57;;;;;;;2.85;1.60;;;21.10;44.10;;;;;;5047814;28;20497;-47
2022/10/10 09:37:31;;;;;;;1.95;1.48;;;21.10;44.20;;;;;;5036733;28;20044;-53
2022/10/10 09:40:00;;;;;;;2.08;1.27;;;21.10;44.10;;;;;;5036839;28;20033;-50
2022/10/10 09:42:35;;;;;;;2.25;1.40;;;21.10;44.20;;;;;;5036785;28;20341;-49
2022/10/10 09:45:02;;;;;;;1.98;1.17;;;21.10;44.20;;;;;;5050503;28;20077;-50
2022/10/10 09:47:28;;;;;;;3.90;1.85;;;21.10;44.20;;;;;;5056485;28;20483;-49
2022/10/10 09:49:54;;;;;;;3.38;1.55;;;21.10;44.20;;;;;;5056439;28;20028;-51
2022/10/10 09:52:29;;;;;;;3.08;1.40;;;21.10;44.20;;;;;;5050187;28;20199;-52
2022/10/10 09:55:05;;;;;;;3.30;1.48;;;21.10;44.30;;;;;;5035572;28;20345;-49
2022/10/10 09:57:41;;;;;;;2.13;1.45;;;21.10;44.30;;;;;;5040936;28;20035;-51
2022/10/10 10:00:19;;;;;;;2.72;1.45;;;21.20;44.40;;;;;;5059045;28;20475;-51
2022/10/10 10:02:49;;;;;;;2.78;1.40;;;21.10;44.30;;;;;;5065513;28;20021;-49
2022/10/10 10:05:24;;;;;;;3.25;1.55;;;21.20;44.40;;;;;;5056662;28;20332;-52
2022/10/10 10:07:53;;;;;;;3.17;1.40;;;21.20;44.50;;;;;;5055198;28;20048;-53
2022/10/10 10:10:22;;;;;;;3.35;1.50;;;21.20;44.50;;;;;;5050721;28;20044;-49
2022/10/10 10:12:48;;;;;;;2.88;1.30;;;21.10;44.50;;;;;;5054817;28;20114;-51
2022/10/10 10:15:25;;;;;;;2.45;1.48;;;21.20;44.50;;;;;;5056028;28;20033;-51
2022/10/10 10:18:09;;;;;;;4.18;1.63;;;21.20;44.60;;;;;;5046102;28;20168;-54
2022/10/10 10:20:39;;;;;;;3.00;1.67;;;21.20;44.70;;;;;;5035877;28;20033;-48
2022/10/10 10:23:21;;;;;;;2.20;1.50;;;21.20;44.70;;;;;;5038741;28;20115;-49
2022/10/10 10:25:57;;;;;;;3.20;1.30;;;21.20;44.70;;;;;;5054575;28;20025;-52
2022/10/10 10:28:23;;;;;;;3.00;1.38;;;21.20;44.80;;;;;;5053903;28;20021;-52
2022/10/10 10:30:52;;;;;;;3.45;1.30;;;21.20;44.80;;;;;;5048352;28;20052;-51
2022/10/10 10:33:36;;;;;;;2.15;1.15;;;21.20;44.90;;;;;;5055685;28;20060;-51
2022/10/10 10:36:05;;;;;;;4.07;1.40;;;21.20;44.90;;;;;;5055446;28;20032;-54
2022/10/10 10:38:36;;;;;;;2.10;1.38;;;21.20;44.90;;;;;;5052121;28;20028;-53
2022/10/10 10:41:14;;;;;;;4.38;1.40;;;21.30;45.00;;;;;;5052490;28;20065;-51
2022/10/10 10:44:07;;;;;;;2.70;1.40;;;21.20;45.00;;;;;;5055757;28;20110;-52
2022/10/10 10:46:51;;;;;;;4.07;1.60;;;21.20;45.00;;;;;;5049677;28;20040;-53
2022/10/10 10:49:27;;;;;;;3.58;1.60;;;21.20;45.10;;;;;;5052362;28;20290;-52
2022/10/10 10:52:10;;;;;;;3.33;1.52;;;21.20;45.20;;;;;;5055186;28;20108;-55
2022/10/10 10:54:51;;;;;;;1.95;1.30;;;21.30;45.30;;;;;;5055302;28;20059;-53
2022/10/10 10:57:33;;;;;;;2.55;1.30;;;21.30;45.30;;;;;;5054293;28;20033;-53
2022/10/10 11:00:11;;;;;;;3.30;1.60;;;21.20;45.30;;;;;;5053468;28;20033;-56
2022/10/10 11:03:14;;;;;;;3.75;1.35;;;21.30;45.40;;;;;;5048359;28;20037;-52
2022/10/10 11:05:44;;;;;;;3.90;1.20;;;21.30;45.40;;;;;;5026717;28;20051;-48
2022/10/10 11:08:30;;;;;;;2.10;1.33;;;21.30;45.50;;;;;;5050259;28;20049;-47
2022/10/10 11:11:08;;;;;;;2.75;1.50;;;21.30;45.50;;;;;;5046693;28;20356;-49
2022/10/10 11:13:50;;;;;;;3.72;1.38;;;21.30;45.60;;;;;;5046654;28;20036;-51
2022/10/10 11:16:20;;;;;;;3.42;1.13;;;21.30;45.60;;;;;;5049292;28;20480;-53
2022/10/10 11:19:01;;;;;;;4.82;1.40;;;21.30;45.80;;;;;;5048456;28;20037;-50
2022/10/10 11:21:31;;;;;;;3.85;1.30;;;21.30;45.90;;;;;;5049439;28;20021;-48
2022/10/10 11:24:08;;;;;;;3.95;1.33;;;21.30;45.90;;;;;;5047044;28;20046;-50
2022/10/10 11:26:52;;;;;;;3.63;1.63;;;21.30;45.90;;;;;;5047601;28;20033;-53
2022/10/10 11:29:31;;;;;;;3.90;1.40;;;21.30;45.90;;;;;;5047512;28;20041;-51
2022/10/10 11:32:11;;;;;;;2.65;1.40;;;21.30;46.00;;;;;;5049945;28;20060;-52
2022/10/10 11:34:42;;;;;;;2.47;1.45;;;21.40;46.20;;;;;;5047536;28;20447;-49
2022/10/10 11:37:17;;;;;;;1.85;1.25;;;21.40;46.40;;;;;;5047996;28;20029;-51
2022/10/10 11:40:06;;;;;;;4.13;1.85;;;21.40;46.50;;;;;;5050775;28;20044;-55
2022/10/10 11:42:41;;;;;;;2.35;1.17;;;21.40;46.50;;;;;;5048505;28;20033;-54
2022/10/10 11:45:17;;;;;;;3.67;1.50;;;21.50;46.50;;;;;;5049032;28;20032;-52
2022/10/10 11:47:46;;;;;;;2.60;1.40;;;21.50;46.70;;;;;;5046275;28;20046;-56
2022/10/10 11:50:22;;;;;;;2.53;1.52;;;21.50;46.70;;;;;;5048023;28;20440;-52
2022/10/10 11:53:12;;;;;;;2.85;1.77;;;21.50;46.70;;;;;;5050315;28;20494;-53
2022/10/10 11:56:14;;;;;;;4.30;1.48;;;21.60;46.80;;;;;;5046001;28;20040;-48
2022/10/10 11:58:44;;;;;;;2.22;1.13;;;21.60;46.70;;;;;;5047291;28;20033;-48
2022/10/10 12:01:26;;;;;;;3.22;1.45;;;21.60;46.80;;;;;;5041096;28;20021;-58
2022/10/10 12:03:52;;;;;;;3.38;1.40;;;21.60;46.90;;;;;;5049383;28;20029;-55
2022/10/10 12:06:22;;;;;;;5.03;1.58;;;21.60;47.00;;;;;;5046004;28;20029;-54
2022/10/10 12:09:13;;;;;;;2.20;1.50;;;21.70;47.10;;;;;;5053175;28;20053;-58
2022/10/10 12:11:57;;;;;;;2.47;1.30;;;21.70;47.20;;;;;;5046284;28;20049;-59
2022/10/10 12:14:26;;;;;;;3.40;1.70;;;21.80;47.20;;;;;;5046941;28;20021;-58
2022/10/10 12:16:54;;;;;;;4.60;1.40;;;21.90;47.00;;;;;;5043033;28;20044;-59
2022/10/10 12:19:26;;;;;;;2.22;1.55;;;22.00;46.80;;;;;;5048387;28;20049;-59
2022/10/10 12:22:07;;;;;;;2.35;1.20;;;22.20;46.80;;;;;;5034393;28;20049;-58
2022/10/10 12:25:11;;;;;;;3.40;1.40;;;22.30;46.60;;;;;;5048969;28;20136;-59
2022/10/10 12:27:42;;;;;;;2.63;1.30;;;22.40;46.50;;;;;;5045394;28;20052;-58
2022/10/10 12:30:08;;;;;;;1.92;1.40;;;22.60;46.40;;;;;;5049034;28;20037;-57
2022/10/10 12:32:45;;;;;;;3.97;1.65;;;22.60;46.10;;;;;;5047501;28;20087;-60
2022/10/10 12:35:34;;;;;;;2.97;1.55;;;22.80;45.90;;;;;;5047417;28;20175;-56
2022/10/10 12:38:21;;;;;;;3.80;1.23;;;22.90;45.90;;;;;;5044171;28;20028;-57
2022/10/10 12:40:56;;;;;;;3.83;1.20;;;23.00;46.00;;;;;;5047139;28;20025;-58
2022/10/10 12:43:45;;;;;;;3.17;1.38;;;23.10;46.10;;;;;;5051256;28;20107;-61
2022/10/10 12:46:25;;;;;;;4.95;1.63;;;23.20;46.10;;;;;;4991754;28;20055;-62
2022/10/10 12:49:15;;;;;;;2.70;1.23;;;23.30;45.90;;;;;;5048288;28;20456;-58
2022/10/10 12:51:43;;;;;;;1.52;1.00;;;23.40;45.90;;;;;;5048098;28;20041;-58
2022/10/10 12:54:22;;;;;;;3.17;1.40;;;23.50;45.80;;;;;;5038934;28;20087;-57
2022/10/10 12:56:57;;;;;;;2.70;1.42;;;23.50;45.70;;;;;;5048860;28;20453;-54
2022/10/10 12:59:24;;;;;;;4.72;0.98;;;23.60;45.60;;;;;;5048800;28;20037;-52
2022/10/10 13:02:02;;;;;;;3.20;1.40;;;23.70;45.40;;;;;;5051122;28;20041;-55
2022/10/10 13:04:33;;;;;;;2.47;1.05;;;23.70;45.20;;;;;;5049746;28;20021;-53
2022/10/10 13:07:02;;;;;;;2.50;1.20;;;23.80;45.10;;;;;;5050387;28;20033;-59